Ana Sayfa
METAR-TAF:

METAR-TAF

Havaalanları :

Accomack County Airport

Melfa, Virginia, Amerika Birleşik Devletleri

Enlem: 37-39N, Boylam: 075-46W, yükseklik: 15 m

Güncel hava durumu gözlemi

Rapor saat 09:35 UTC de 20 dakika önce yapıldı.
Rüzgar doğudan 5 kt
Sıcaklık 12°C
Nem 94%
Basınç 1016 hPa
Görüş mesafesi: 16.1 km
6000 ft yükseklikte çok bulutlu

METAR: KMFV 280935Z AUTO 09005KT 10SM OVC060 12/11 A2999 RMK AO2 T01220107

Saat: 05:55 (09:55 UTC)


TAF: eksik

4.000'den fazla havaalanı için hava durumu gözlemleri ve tahminleri (METAR ve TAF raporları).

Kullanılabilir istasyonlar harita üzerinde sarı ve kırmızı noktalarla gösterilir.

İstasyonun adını görmek için fareyi noktanın üzerinde gezdirin.

Sonrasında hava gözlem ve tahminlerini görmek için tıklayın.

Haritayı değiştirmek için: yaklaştırmak için siyah artı işaretli yeşil düğmeye ve uzaklaştırmak için de eksi işaretli düğmeye hızla tıklayın; bitişik haritalar için yeşil okları kullanın.


METAR-TAF: